Time;durP1;ratioP1;P1;durP2;ratioP2;P2;SDS_P1;SDS_P2;PMS_P1;PMS_P2;Temp;Humidity;BMP_temperature;BMP_pressure;BME280_temperature;BME280_humidity;BME280_pressure;Samples;Min_cycle;Max_cycle;Signal;HPM_P1;HPM_P2
2022/05/12 00:01:13;;;;;;;2.60;0.80;;;;;;;20.85;58.18;99538.50;4893801;29;20040;-88
2022/05/12 00:03:38;;;;;;;2.60;1.05;;;;;;;20.79;58.09;99535.75;4893285;29;20029;-87
2022/05/12 00:06:03;;;;;;;2.85;1.17;;;;;;;20.80;57.63;99540.16;4893743;29;20045;-87
2022/05/12 00:08:29;;;;;;;3.65;1.05;;;;;;;20.81;57.57;99541.81;4892887;29;20040;-88
2022/05/12 00:10:55;;;;;;;3.63;1.20;;;;;;;20.79;58.28;99557.50;4893502;29;20041;-87
2022/05/12 00:13:20;;;;;;;2.67;1.02;;;;;;;20.84;57.96;99555.84;4908814;29;20033;-86
2022/05/12 00:15:47;;;;;;;3.05;1.00;;;;;;;20.79;58.33;99552.91;4893368;29;20048;-86
2022/05/12 00:18:12;;;;;;;2.20;0.85;;;;;;;20.73;58.20;99564.63;4893864;29;20033;-86
2022/05/12 00:20:40;;;;;;;1.85;0.98;;;;;;;20.73;58.48;99560.03;4893257;29;20035;-87
2022/05/12 00:23:23;;;;;;;4.43;0.83;;;;;;;20.64;58.56;99564.03;4893454;29;20029;-86
2022/05/12 00:25:50;;;;;;;3.22;1.20;;;;;;;20.72;58.09;99568.41;4892744;29;20060;-86
2022/05/12 00:28:17;;;;;;;2.58;1.02;;;;;;;20.68;58.26;99580.75;4876968;29;20033;-88
2022/05/12 00:30:44;;;;;;;4.07;1.10;;;;;;;20.70;58.42;99574.06;4877885;29;20056;-86
2022/05/12 00:33:09;;;;;;;4.53;0.90;;;;;;;20.73;58.32;99573.63;4892962;29;20033;-87
2022/05/12 00:35:35;;;;;;;2.95;0.93;;;;;;;20.73;58.80;99570.91;4893542;29;20037;-87
2022/05/12 00:38:01;;;;;;;4.43;1.10;;;;;;;20.70;58.60;99578.66;4893254;29;20060;-87
2022/05/12 00:40:26;;;;;;;2.38;1.00;;;;;;;20.64;58.60;99579.50;4892793;29;20037;-87
2022/05/12 00:42:54;;;;;;;7.07;1.50;;;;;;;20.58;58.05;99577.63;4876864;29;20040;-87
2022/05/12 00:45:20;;;;;;;2.97;1.00;;;;;;;20.60;58.89;99579.09;4879582;29;20043;-87
2022/05/12 00:47:45;;;;;;;6.18;1.38;;;;;;;20.58;58.26;99583.06;4896710;29;20024;-87
2022/05/12 00:50:10;;;;;;;6.07;1.08;;;;;;;20.56;57.93;99593.31;4896452;29;20108;-87
2022/05/12 00:52:36;;;;;;;3.58;1.10;;;;;;;20.53;59.04;99591.84;4896266;29;20119;-86
2022/05/12 00:55:05;;;;;;;4.25;1.10;;;;;;;20.49;59.10;99593.34;4896375;29;20123;-87
2022/05/12 00:57:32;;;;;;;2.95;0.98;;;;;;;20.53;59.38;99604.63;4896089;29;20080;-87
2022/05/12 00:59:58;;;;;;;3.67;1.10;;;;;;;20.48;59.07;99602.53;4896317;29;20028;-87
2022/05/12 01:02:26;;;;;;;3.58;1.35;;;;;;;20.45;59.09;99597.50;4895651;29;20052;-87
2022/05/12 01:04:55;;;;;;;4.57;1.35;;;;;;;20.50;59.37;99602.31;4896060;29;20044;-87
2022/05/12 01:07:20;;;;;;;3.15;1.10;;;;;;;20.50;58.46;99610.47;4896091;29;21019;-87
2022/05/12 01:09:45;;;;;;;3.88;1.20;;;;;;;20.40;58.91;99610.91;4896052;29;20032;-87
2022/05/12 01:12:11;;;;;;;2.28;1.20;;;;;;;20.43;59.50;99607.75;4895962;29;20056;-87
2022/05/12 01:14:37;;;;;;;4.88;1.23;;;;;;;20.39;59.33;99612.78;4895923;29;20062;-87
2022/05/12 01:17:03;;;;;;;3.40;1.27;;;;;;;20.42;59.33;99616.97;4895856;29;20044;-87
2022/05/12 01:19:31;;;;;;;3.00;1.20;;;;;;;20.32;59.45;99619.19;4896341;29;20039;-87
2022/05/12 01:21:57;;;;;;;3.25;1.50;;;;;;;20.35;59.31;99625.09;4910550;29;20167;-87
2022/05/12 01:24:31;;;;;;;2.90;1.17;;;;;;;20.38;59.70;99623.81;4879991;29;20471;-88
2022/05/12 01:26:56;;;;;;;4.60;1.50;;;;;;;20.30;59.48;99627.56;4911193;29;20032;-87
2022/05/12 01:29:21;;;;;;;2.58;1.73;;;;;;;20.26;59.19;99629.03;4895811;29;20088;-87
2022/05/12 01:31:47;;;;;;;2.28;1.90;;;;;;;20.26;58.51;99631.75;4880199;29;20033;-87
2022/05/12 01:34:13;;;;;;;3.55;1.77;;;;;;;20.27;58.95;99635.28;4880102;29;20039;-87
2022/05/12 01:36:39;;;;;;;3.70;1.90;;;;;;;20.28;59.54;99634.25;4895627;29;20075;-87
2022/05/12 01:39:06;;;;;;;2.38;1.75;;;;;;;20.25;59.67;99637.38;4881938;29;20041;-87
2022/05/12 01:41:31;;;;;;;2.83;2.00;;;;;;;20.22;58.95;99638.63;4896294;29;20050;-87
2022/05/12 01:43:57;;;;;;;3.88;2.15;;;;;;;19.95;59.53;99642.38;4895518;29;20048;-88
2022/05/12 01:46:24;;;;;;;3.75;2.15;;;;;;;19.83;59.71;99649.41;4895644;29;20032;-88
2022/05/12 01:48:49;;;;;;;3.65;2.80;;;;;;;19.65;60.32;99640.00;4895816;29;20036;-87
2022/05/12 01:51:14;;;;;;;3.20;2.90;;;;;;;19.58;60.49;99654.56;4895595;29;20037;-87
2022/05/12 01:53:40;;;;;;;3.42;2.10;;;;;;;19.75;60.90;99658.59;4895484;29;20063;-87
2022/05/12 01:56:07;;;;;;;7.50;3.30;;;;;;;19.78;59.13;99652.75;4894983;29;20039;-88
2022/05/12 01:58:33;;;;;;;6.28;3.60;;;;;;;19.32;59.62;99666.94;4895332;29;20036;-87
2022/05/12 02:00:58;;;;;;;6.90;3.92;;;;;;;19.04;61.33;99667.00;4895801;29;20028;-87
2022/05/12 02:03:23;;;;;;;5.53;3.70;;;;;;;19.00;61.47;99681.16;4879653;29;20040;-87
2022/05/12 02:05:49;;;;;;;3.85;2.95;;;;;;;19.26;61.59;99684.03;4879955;29;20115;-88
2022/05/12 02:08:16;;;;;;;5.68;3.50;;;;;;;19.02;62.11;99687.22;4879519;29;20028;-87
2022/05/12 02:10:45;;;;;;;5.13;3.80;;;;;;;19.08;61.15;99681.84;4895107;29;20035;-87
2022/05/12 02:13:11;;;;;;;6.30;3.83;;;;;;;18.98;61.36;99691.38;4894296;29;20032;-87
2022/05/12 02:15:38;;;;;;;3.97;3.55;;;;;;;19.20;61.13;99698.38;4879327;29;20032;-87
2022/05/12 02:18:04;;;;;;;5.00;3.60;;;;;;;19.26;61.06;99704.88;4879548;29;20075;-87
2022/05/12 02:20:29;;;;;;;5.22;3.80;;;;;;;19.23;61.25;99708.81;4894888;29;20052;-87
2022/05/12 02:22:54;;;;;;;3.72;3.10;;;;;;;19.29;60.23;99710.72;4894680;29;20036;-87
2022/05/12 02:25:20;;;;;;;3.92;3.60;;;;;;;19.28;60.23;99710.94;4895054;29;20036;-87
2022/05/12 02:27:46;;;;;;;8.13;4.35;;;;;;;19.01;60.77;99716.22;4894741;29;20037;-87
2022/05/12 02:30:19;;;;;;;5.18;4.28;;;;;;;18.82;60.79;99714.16;4894695;29;20032;-87
2022/05/12 02:32:44;;;;;;;6.10;4.30;;;;;;;18.80;61.20;99714.38;4909595;29;20517;-87
2022/05/12 02:35:10;;;;;;;6.47;4.70;;;;;;;18.57;61.14;99721.88;4894585;29;20119;-87
2022/05/12 02:37:35;;;;;;;7.50;5.03;;;;;;;18.33;61.92;99714.97;4894766;29;20055;-87
2022/05/12 02:40:01;;;;;;;7.55;4.85;;;;;;;18.14;61.93;99724.56;4894084;29;20616;-87
2022/05/12 02:42:26;;;;;;;5.30;4.50;;;;;;;18.19;62.57;99724.84;4893941;29;20056;-87
2022/05/12 02:44:51;;;;;;;5.22;4.75;;;;;;;18.14;62.89;99730.00;4894489;29;20032;-86
2022/05/12 02:47:17;;;;;;;5.72;4.93;;;;;;;18.11;61.92;99730.38;4878698;29;20494;-87
2022/05/12 02:49:43;;;;;;;6.13;5.20;;;;;;;18.07;62.45;99737.19;4892040;29;20021;-86
2022/05/12 02:52:09;;;;;;;6.15;4.95;;;;;;;18.20;61.96;99742.75;4878778;29;20483;-87
2022/05/12 02:54:35;;;;;;;10.98;5.25;;;;;;;17.96;62.53;99744.97;4894083;29;20510;-87
2022/05/12 02:57:00;;;;;;;5.50;5.00;;;;;;;18.17;62.43;99748.56;4893779;29;20037;-87
2022/05/12 02:59:26;;;;;;;6.00;5.10;;;;;;;18.38;61.87;99755.00;4893530;29;20080;-87
2022/05/12 03:01:51;;;;;;;5.32;4.82;;;;;;;18.28;62.11;99760.75;4876205;29;20029;-87
2022/05/12 03:04:17;;;;;;;6.05;4.95;;;;;;;18.37;61.15;99761.44;4875820;29;20035;-86
2022/05/12 03:06:43;;;;;;;7.47;4.65;;;;;;;18.51;61.11;99760.56;4891474;29;20028;-87
2022/05/12 03:09:08;;;;;;;5.68;4.70;;;;;;;18.61;60.53;99763.78;4895720;29;20036;-86
2022/05/12 03:11:34;;;;;;;8.43;5.25;;;;;;;18.60;60.47;99767.53;4894219;29;20872;-86
2022/05/12 03:13:59;;;;;;;6.28;4.63;;;;;;;18.65;59.10;99775.09;4893709;29;20033;-87
2022/05/12 03:16:25;;;;;;;6.65;5.40;;;;;;;18.60;60.05;99774.81;4893936;29;20040;-87
2022/05/12 03:18:51;;;;;;;5.75;5.15;;;;;;;18.54;59.43;99777.28;4893609;29;20403;-87
2022/05/12 03:21:17;;;;;;;6.32;5.00;;;;;;;18.52;59.79;99778.50;4893906;29;20049;-87
2022/05/12 03:23:43;;;;;;;6.30;5.13;;;;;;;18.53;59.85;99770.19;4893780;29;20025;-87
2022/05/12 03:26:09;;;;;;;7.30;5.25;;;;;;;18.58;59.16;99779.59;4893606;29;20048;-86
2022/05/12 03:28:35;;;;;;;5.88;4.70;;;;;;;18.62;59.05;99781.75;4893759;29;20036;-87
2022/05/12 03:31:00;;;;;;;6.35;5.18;;;;;;;18.61;58.71;99784.63;4893853;29;20035;-87
2022/05/12 03:33:25;;;;;;;5.90;5.20;;;;;;;18.59;59.89;99784.81;4893729;29;20029;-86
2022/05/12 03:35:51;;;;;;;6.47;5.15;;;;;;;18.60;59.22;99785.66;4893797;29;20032;-87
2022/05/12 03:38:20;;;;;;;6.10;5.50;;;;;;;18.56;59.82;99779.78;4893537;29;20450;-86
2022/05/12 03:40:46;;;;;;;5.60;5.05;;;;;;;18.49;59.47;99779.72;4893907;29;20081;-86
2022/05/12 03:44:46;;;;;;;6.32;5.10;;;;;;;18.48;59.40;99786.16;4893384;29;20056;-86
2022/05/12 03:45:57;;;;;;;8.52;5.10;;;;;;;18.45;60.18;99796.56;4894651;29;20112;-87
2022/05/12 03:48:23;;;;;;;6.53;5.15;;;;;;;18.42;60.41;99792.31;4893984;29;20025;-86
2022/05/12 03:50:48;;;;;;;6.47;5.18;;;;;;;18.45;59.83;99799.25;4893674;29;20028;-86
2022/05/12 03:53:14;;;;;;;7.00;5.15;;;;;;;18.44;59.39;99809.22;4893444;29;20031;-86
2022/05/12 03:55:39;;;;;;;6.07;5.13;;;;;;;18.39;60.10;99808.97;4877850;29;20383;-87
2022/05/12 03:58:04;;;;;;;5.88;5.07;;;;;;;18.41;59.52;99815.03;4893763;29;20029;-87
2022/05/12 04:00:31;;;;;;;6.93;5.32;;;;;;;18.39;59.79;99816.25;4893546;29;20541;-86
2022/05/12 04:02:57;;;;;;;7.18;5.20;;;;;;;18.36;59.28;99820.19;4893940;29;20033;-90
2022/05/12 04:05:22;;;;;;;7.18;5.53;;;;;;;18.37;59.51;99821.84;4894121;29;20036;-89
2022/05/12 04:07:49;;;;;;;5.78;5.03;;;;;;;18.34;59.12;99830.38;4894330;29;20033;-89
2022/05/12 04:10:15;;;;;;;5.93;4.90;;;;;;;18.32;59.18;99835.13;4878587;29;20718;-89
2022/05/12 04:12:41;;;;;;;6.35;5.22;;;;;;;18.07;60.15;99834.63;4893803;29;20128;-89
2022/05/12 04:15:08;;;;;;;5.80;5.20;;;;;;;18.03;59.86;99840.63;4894488;29;20149;-89
2022/05/12 04:17:33;;;;;;;7.38;4.95;;;;;;;18.12;60.79;99844.91;4893789;29;20040;-89
2022/05/12 04:20:04;;;;;;;5.28;4.78;;;;;;;18.13;60.18;99847.41;4897273;29;20037;-89
2022/05/12 04:22:29;;;;;;;5.97;4.90;;;;;;;18.15;59.88;99847.22;4880127;29;20472;-89
2022/05/12 04:24:55;;;;;;;5.50;4.82;;;;;;;18.15;60.31;99852.63;4897482;29;20123;-89
2022/05/12 04:27:21;;;;;;;6.68;5.30;;;;;;;18.18;60.29;99847.69;4881848;29;20091;-89
2022/05/12 04:29:46;;;;;;;7.63;5.30;;;;;;;18.16;60.71;99859.72;4897374;29;20165;-89
2022/05/12 04:32:12;;;;;;;6.00;5.10;;;;;;;18.18;60.74;99863.09;4897660;29;20043;-88
2022/05/12 04:35:20;;;;;;;6.60;5.50;;;;;;;18.14;60.50;99859.91;4897622;29;20123;-89
2022/05/12 04:37:26;;;;;;;;;;;;;;;18.13;60.42;99862.81;4892671;29;20044;-89
2022/05/12 04:39:52;;;;;;;6.85;4.85;;;;;;;18.17;60.78;99866.81;4897224;29;19926;-88
2022/05/12 04:42:17;;;;;;;5.95;5.30;;;;;;;18.14;60.83;99870.75;4897091;29;20140;-89
2022/05/12 04:44:42;;;;;;;5.90;5.25;;;;;;;18.16;60.86;99875.97;4897051;29;20029;-89
2022/05/12 04:47:08;;;;;;;7.43;5.63;;;;;;;18.17;60.94;99886.59;4897208;29;20081;-89
2022/05/12 04:49:33;;;;;;;5.55;5.05;;;;;;;18.16;60.26;99876.81;4881071;29;20635;-89
2022/05/12 04:52:01;;;;;;;6.40;5.72;;;;;;;18.15;61.12;99891.38;4897193;29;20029;-89
2022/05/12 04:54:27;;;;;;;7.10;5.97;;;;;;;18.11;61.30;99890.06;4896541;29;20088;-89
2022/05/12 04:56:52;;;;;;;6.90;5.05;;;;;;;18.11;61.25;99895.47;4896709;29;20033;-89
2022/05/12 04:59:17;;;;;;;8.07;5.47;;;;;;;18.10;61.38;99901.94;4896649;29;20040;-89
2022/05/12 05:01:43;;;;;;;7.97;5.80;;;;;;;18.12;62.24;99905.28;4896484;29;20035;-89
2022/05/12 05:04:08;;;;;;;7.78;5.72;;;;;;;18.15;61.51;99901.34;4896100;29;20052;-89
2022/05/12 05:06:33;;;;;;;7.20;5.10;;;;;;;18.18;61.28;99900.97;4896491;29;20929;-89
2022/05/12 05:08:59;;;;;;;6.38;5.40;;;;;;;18.19;61.61;99908.91;4896608;29;20043;-88
2022/05/12 05:11:25;;;;;;;7.63;5.55;;;;;;;18.21;61.31;99912.28;4896746;29;20136;-89
2022/05/12 05:13:50;;;;;;;8.50;5.70;;;;;;;18.21;61.43;99906.84;4896265;29;20036;-88
2022/05/12 05:16:17;;;;;;;8.05;5.60;;;;;;;18.24;62.43;99913.75;4880899;29;20387;-90
2022/05/12 05:18:42;;;;;;;7.38;5.57;;;;;;;18.28;61.05;99925.88;4880933;29;20040;-89
2022/05/12 05:21:09;;;;;;;6.95;5.70;;;;;;;18.19;62.63;99924.31;4899241;29;20087;-88
2022/05/12 05:23:35;;;;;;;7.95;5.68;;;;;;;18.22;62.27;99940.19;4896074;29;20547;-89
2022/05/12 05:26:01;;;;;;;6.80;5.20;;;;;;;18.23;61.90;99931.88;4896937;29;20048;-89
2022/05/12 05:28:26;;;;;;;6.88;5.40;;;;;;;18.21;62.21;99933.09;4896747;29;20452;-89
2022/05/12 05:30:52;;;;;;;7.70;5.80;;;;;;;18.25;62.08;99937.09;4895359;29;20028;-88
2022/05/12 05:33:19;;;;;;;8.27;5.72;;;;;;;18.16;62.57;99939.06;4880462;29;20056;-88
2022/05/12 05:35:44;;;;;;;7.05;4.85;;;;;;;18.20;62.58;99939.53;4896257;29;20036;-89
2022/05/12 05:38:10;;;;;;;7.40;5.28;;;;;;;18.24;62.64;99948.97;4896024;29;20386;-89
2022/05/12 05:40:36;;;;;;;7.35;5.32;;;;;;;18.22;62.80;99945.59;4896257;29;20033;-88
2022/05/12 05:43:02;;;;;;;7.82;5.28;;;;;;;18.20;62.05;99947.66;4879312;29;20052;-89
2022/05/12 05:45:28;;;;;;;8.55;4.90;;;;;;;18.23;62.79;99956.25;4896008;29;20025;-88
2022/05/12 05:47:57;;;;;;;8.88;4.90;;;;;;;18.28;62.43;99952.97;4895832;29;20043;-89
2022/05/12 05:53:23;;;;;;;9.18;5.18;;;;;;;18.19;63.17;99967.63;4899450;29;20428;-91
2022/05/12 05:53:26;;;;;;;5.63;4.60;;;;;;;18.21;63.50;99973.69;4897951;29;20395;-89
2022/05/12 05:55:53;;;;;;;7.20;4.90;;;;;;;18.28;62.21;99971.06;4899965;29;20033;-90
2022/05/12 05:58:19;;;;;;;8.02;4.80;;;;;;;18.25;63.01;99977.72;4898356;29;20561;-90
2022/05/12 06:00:45;;;;;;;5.97;5.22;;;;;;;18.29;62.76;99984.44;4898510;29;20033;-90
2022/05/12 06:03:11;;;;;;;9.18;5.30;;;;;;;18.27;63.47;99983.78;4898530;29;20475;-93
2022/05/12 06:05:37;;;;;;;6.72;5.53;;;;;;;18.28;62.96;99984.63;4883130;29;20033;-90
2022/05/12 06:08:03;;;;;;;7.75;5.15;;;;;;;18.21;62.80;99985.38;4897813;29;20025;-91
2022/05/12 06:10:29;;;;;;;6.88;5.07;;;;;;;18.23;62.83;99990.59;4898367;29;20024;-91
2022/05/12 06:12:55;;;;;;;8.93;5.05;;;;;;;18.22;62.47;99991.63;4898425;29;20044;-90
2022/05/12 06:15:21;;;;;;;7.03;5.10;;;;;;;18.26;63.16;99992.94;4898584;29;20032;-91
2022/05/12 06:17:46;;;;;;;6.35;4.40;;;;;;;18.30;62.61;99990.69;4896565;29;20356;-91
2022/05/12 06:20:12;;;;;;;6.68;4.60;;;;;;;18.32;62.89;99997.59;4882855;29;20460;-91
2022/05/12 06:22:38;;;;;;;5.05;3.70;;;;;;;18.29;62.72;99995.25;4898170;29;20040;-90
2022/05/12 06:25:06;;;;;;;6.03;4.70;;;;;;;18.31;63.11;100001.31;4897564;29;20084;-91
2022/05/12 06:27:32;;;;;;;6.90;4.13;;;;;;;18.38;62.64;100004.13;4897817;29;20029;-89
2022/05/12 06:29:57;;;;;;;6.03;4.38;;;;;;;18.42;62.43;100003.56;4897510;29;20111;-91
2022/05/12 06:32:23;;;;;;;7.30;4.82;;;;;;;18.39;62.73;100008.50;4898037;29;20092;-91
2022/05/12 06:34:48;;;;;;;9.20;5.05;;;;;;;18.47;62.08;100006.56;4897793;29;20024;-91
2022/05/12 06:37:14;;;;;;;5.97;4.53;;;;;;;18.53;62.16;100010.41;4895896;29;20028;-91
2022/05/12 06:39:40;;;;;;;6.13;4.68;;;;;;;18.52;61.81;100006.84;4898203;29;20067;-92
2022/05/12 06:42:05;;;;;;;7.30;4.90;;;;;;;18.52;62.46;100019.56;4897616;29;20079;-91
2022/05/12 06:44:31;;;;;;;8.52;5.65;;;;;;;18.21;63.00;100017.84;4897854;29;20133;-91
2022/05/12 06:46:57;;;;;;;6.88;5.50;;;;;;;18.00;63.41;100016.91;4882591;29;20048;-91
2022/05/12 06:49:22;;;;;;;9.27;6.13;;;;;;;17.88;63.92;100022.75;4897927;29;20075;-91
2022/05/12 06:51:48;;;;;;;6.15;5.45;;;;;;;18.04;63.54;100019.06;4897013;29;20460;-91
2022/05/12 06:54:14;;;;;;;8.05;5.60;;;;;;;18.16;63.28;100022.16;4882353;29;20467;-91
2022/05/12 06:56:41;;;;;;;6.22;5.32;;;;;;;18.22;62.90;100015.97;4898067;29;20051;-91
2022/05/12 06:59:07;;;;;;;7.28;5.53;;;;;;;18.26;62.31;100017.28;4897836;29;20027;-91
2022/05/12 07:01:33;;;;;;;7.25;5.53;;;;;;;18.31;62.39;100020.28;4898012;29;20490;-91
2022/05/12 07:04:00;;;;;;;8.10;5.72;;;;;;;18.29;62.45;100025.03;4898425;29;20020;-92
2022/05/12 07:06:26;;;;;;;7.90;6.03;;;;;;;18.18;62.87;100036.34;4898411;29;20384;-92
2022/05/12 07:08:51;;;;;;;8.27;6.00;;;;;;;17.92;63.81;100029.47;4882801;29;20043;-92
2022/05/12 07:11:16;;;;;;;9.65;6.38;;;;;;;17.77;63.33;100030.47;4898385;29;20080;-93
2022/05/12 07:13:42;;;;;;;7.05;5.15;;;;;;;17.93;63.29;100031.16;4898586;29;20029;-93
2022/05/12 07:16:08;;;;;;;5.75;4.40;;;;;;;18.08;61.86;100031.19;4898941;29;20119;-93
2022/05/12 07:18:34;;;;;;;7.68;5.18;;;;;;;18.15;61.80;100028.59;4898353;29;20463;-93
2022/05/12 07:26:39;;;;;;;6.82;4.40;;;;;;;18.52;60.75;100035.81;4898522;29;20097;-93
2022/05/12 07:29:08;;;;;;;5.82;4.65;;;;;;;18.52;60.85;100042.06;4899206;29;20042;-93
2022/05/12 07:31:34;;;;;;;6.10;4.63;;;;;;;18.63;60.95;100042.66;4898227;29;20028;-92
2022/05/12 07:34:00;;;;;;;10.43;4.53;;;;;;;18.52;60.08;100049.34;4898014;29;20360;-92
2022/05/12 07:36:37;;;;;;;6.32;4.82;;;;;;;18.46;60.96;100055.50;4898326;29;20028;-92
2022/05/12 07:39:04;;;;;;;6.28;4.60;;;;;;;18.51;60.62;100053.09;4897965;29;20112;-92
2022/05/12 07:41:29;;;;;;;7.38;4.82;;;;;;;18.46;60.32;100053.66;4913594;29;20115;-92
2022/05/12 07:43:56;;;;;;;8.23;4.53;;;;;;;18.46;59.82;100053.66;4897792;29;20575;-92
2022/05/12 07:46:24;;;;;;;6.72;4.03;;;;;;;18.50;59.76;100060.38;4882292;29;20447;-92
2022/05/12 07:48:50;;;;;;;6.43;3.95;;;;;;;18.55;59.73;100063.34;4898007;29;20033;-88
2022/05/12 07:51:17;;;;;;;6.18;4.20;;;;;;;18.55;59.57;100065.22;4896828;29;20076;-92
2022/05/12 07:53:47;;;;;;;5.47;3.38;;;;;;;18.67;60.24;100061.03;4899383;29;20059;-93
2022/05/12 07:56:14;;;;;;;5.32;3.70;;;;;;;18.63;59.31;100054.31;4886225;29;20496;-92
2022/05/12 07:58:39;;;;;;;6.80;3.58;;;;;;;18.60;58.34;100061.94;4885879;29;20088;-92
2022/05/12 08:01:05;;;;;;;5.40;3.30;;;;;;;18.55;58.92;100063.34;4886047;29;20428;-92
2022/05/12 08:03:30;;;;;;;6.55;3.60;;;;;;;18.53;58.91;100073.53;4901803;29;20029;-91
2022/05/12 08:06:07;;;;;;;6.38;3.63;;;;;;;18.60;59.73;100070.91;4901542;29;20025;-92
2022/05/12 08:08:34;;;;;;;7.40;4.35;;;;;;;18.61;59.71;100072.59;4901478;29;20383;-92
2022/05/12 08:10:59;;;;;;;5.95;3.85;;;;;;;18.55;60.17;100076.91;4901724;29;20475;-92
2022/05/12 08:13:25;;;;;;;7.40;4.32;;;;;;;18.59;59.41;100079.22;4901171;29;20028;-92
2022/05/12 08:15:51;;;;;;;5.97;3.88;;;;;;;18.66;59.91;100077.50;4901630;29;20111;-91
2022/05/12 08:18:18;;;;;;;6.10;4.25;;;;;;;18.65;59.93;100087.47;4901449;29;20087;-93
2022/05/12 08:20:44;;;;;;;6.13;4.47;;;;;;;18.69;60.50;100085.25;4901590;29;20020;-92
2022/05/12 08:23:10;;;;;;;6.70;4.68;;;;;;;18.74;59.58;100090.94;4885535;29;20472;-92
2022/05/12 08:25:36;;;;;;;5.10;4.47;;;;;;;18.69;58.31;100082.53;4901051;29;20052;-92
2022/05/12 08:28:02;;;;;;;5.75;4.05;;;;;;;18.72;58.38;100088.41;4901170;29;20040;-93
2022/05/12 08:30:29;;;;;;;6.55;3.80;;;;;;;18.77;58.03;100095.97;4900903;29;20028;-92
2022/05/12 08:32:55;;;;;;;6.82;4.18;;;;;;;18.82;57.66;100088.13;4901293;29;20033;-94
2022/05/12 08:35:20;;;;;;;5.00;4.07;;;;;;;18.80;57.36;100101.88;4901226;29;20025;-92
2022/05/12 08:37:45;;;;;;;5.28;3.50;;;;;;;18.80;57.20;100096.44;4900720;29;20100;-94
2022/05/12 08:40:20;;;;;;;3.97;3.10;;;;;;;18.80;57.51;100091.03;4900834;29;20089;-92
2022/05/12 08:42:46;;;;;;;5.18;3.50;;;;;;;18.87;58.50;100100.09;4901144;29;20044;-91
2022/05/12 08:45:14;;;;;;;4.65;3.00;;;;;;;18.88;57.43;100100.91;4900761;29;20036;-93
2022/05/12 08:47:45;;;;;;;7.35;3.33;;;;;;;18.83;56.90;100100.66;4900949;29;20028;-93
2022/05/12 08:50:20;;;;;;;5.32;2.90;;;;;;;18.84;57.22;100096.91;4900974;29;20029;-93
2022/05/12 08:52:53;;;;;;;5.72;3.70;;;;;;;18.66;57.43;100100.00;4900681;29;20085;-93
2022/05/12 08:55:27;;;;;;;6.95;3.33;;;;;;;18.64;57.66;100102.06;4900739;29;20024;-93
2022/05/12 08:57:57;;;;;;;5.38;3.25;;;;;;;18.74;57.38;100094.50;4901580;29;20029;-92
2022/05/12 09:00:24;;;;;;;4.60;2.50;;;;;;;18.81;55.84;100098.13;4898006;29;20139;-90
2022/05/12 09:03:14;;;;;;;5.63;3.13;;;;;;;18.85;55.91;100099.44;4898014;29;20107;-90
2022/05/12 09:05:53;;;;;;;5.70;2.60;;;;;;;18.92;54.81;100107.69;4895481;29;20037;-90
2022/05/12 09:08:18;;;;;;;;;;;;;;;18.92;54.44;100098.69;4899040;29;20147;-90
2022/05/12 09:10:59;;;;;;;3.20;2.20;;;;;;;18.92;54.53;100104.09;4897726;29;20062;-89
2022/05/12 09:13:42;;;;;;;5.03;2.83;;;;;;;18.91;54.84;100092.41;4909931;29;20127;-90
2022/05/12 09:16:16;;;;;;;4.30;2.55;;;;;;;18.92;55.50;100090.53;4913624;29;20052;-91
2022/05/12 09:18:42;;;;;;;3.75;2.33;;;;;;;18.93;55.00;100089.53;4898329;29;20029;-90
2022/05/12 09:21:18;;;;;;;3.25;2.08;;;;;;;18.95;54.21;100092.91;4899454;29;20493;-92
2022/05/12 09:23:43;;;;;;;5.25;1.90;;;;;;;18.96;52.80;100094.59;4885553;29;20056;-92
2022/05/12 09:26:34;;;;;;;3.63;2.17;;;;;;;19.01;53.27;100101.13;4900833;29;20037;-92
2022/05/12 09:29:24;;;;;;;2.83;2.20;;;;;;;18.99;52.74;100103.19;4902044;29;20031;-92
2022/05/12 09:31:53;;;;;;;4.07;2.28;;;;;;;19.02;53.32;100099.25;4900677;29;20116;-93
2022/05/12 09:34:24;;;;;;;3.90;2.30;;;;;;;19.05;52.53;100101.59;4899746;29;20028;-92
2022/05/12 09:36:49;;;;;;;4.22;2.25;;;;;;;19.05;53.22;100101.59;4899586;29;20024;-92
2022/05/12 09:39:51;;;;;;;4.00;1.98;;;;;;;19.02;52.61;100096.53;4899541;29;20040;-92
2022/05/12 09:42:28;;;;;;;3.58;2.30;;;;;;;19.07;52.44;100100.38;4842889;29;20065;-91
2022/05/12 09:45:07;;;;;;;2.95;1.80;;;;;;;19.12;52.00;100089.78;4892919;29;20037;-91
2022/05/12 09:47:33;;;;;;;4.13;2.20;;;;;;;19.15;51.11;100092.13;4884213;29;20476;-92
2022/05/12 09:50:16;;;;;;;4.88;2.45;;;;;;;19.23;51.58;100087.63;4899684;29;20032;-91
2022/05/12 09:52:46;;;;;;;4.13;1.77;;;;;;;19.17;50.84;100083.78;4899681;29;20032;-93
2022/05/12 09:55:23;;;;;;;4.50;2.03;;;;;;;18.99;50.82;100086.06;4899383;29;20115;-93
2022/05/12 09:58:00;;;;;;;3.65;2.20;;;;;;;18.86;50.73;100092.13;4900388;29;20377;-94
2022/05/12 10:00:36;;;;;;;3.53;2.50;;;;;;;18.88;51.86;100092.78;4900069;29;20028;-93
2022/05/12 10:09:08;;;;;;;4.72;2.50;;;;;;;18.95;52.25;100076.66;4900375;29;20079;-94
2022/05/12 10:11:49;;;;;;;4.30;2.80;;;;;;;18.91;50.81;100075.31;4900178;29;20029;-94
2022/05/12 10:14:39;;;;;;;5.55;2.60;;;;;;;18.81;50.69;100067.47;4900496;29;20028;-95
2022/05/12 10:17:29;;;;;;;4.43;2.50;;;;;;;18.74;51.54;100067.38;4899328;29;20027;-95
2022/05/12 10:20:07;;;;;;;3.17;1.90;;;;;;;18.80;50.89;100072.06;4889993;29;20055;-94
2022/05/12 10:22:39;;;;;;;2.33;1.50;;;;;;;19.03;50.23;100058.41;4899475;29;20115;-94
2022/05/12 10:25:47;;;;;;;4.03;2.30;;;;;;;19.18;50.03;100061.06;4884128;29;20036;-94
2022/05/12 10:28:18;;;;;;;5.13;2.53;;;;;;;19.24;50.83;100064.88;4898946;29;20055;-94
2022/05/12 10:31:02;;;;;;;3.08;2.38;;;;;;;19.28;51.18;100074.31;4899797;29;20052;-94
2022/05/12 10:33:30;;;;;;;3.80;2.67;;;;;;;19.30;50.72;100056.81;4898746;29;20029;-94
2022/05/12 10:36:05;;;;;;;5.35;2.97;;;;;;;19.25;50.89;100066.56;4899406;29;20068;-93
2022/05/12 10:38:41;;;;;;;3.25;2.40;;;;;;;19.03;49.42;100068.41;4883256;29;20040;-91
2022/05/12 10:41:18;;;;;;;4.90;2.90;;;;;;;19.11;50.68;100077.25;4881857;29;20034;-91
2022/05/12 10:44:25;;;;;;;3.38;2.42;;;;;;;19.30;50.81;100062.25;4895425;29;20041;-90
2022/05/12 10:47:00;;;;;;;3.75;2.13;;;;;;;19.41;51.30;100059.06;4896919;29;20032;-92
2022/05/12 10:49:53;;;;;;;3.67;2.33;;;;;;;19.51;51.39;100058.72;4896336;29;20043;-90
2022/05/12 10:52:37;;;;;;;4.55;2.55;;;;;;;19.50;50.89;100059.75;4911092;29;20032;-90
2022/05/12 10:55:28;;;;;;;5.45;2.17;;;;;;;19.35;50.55;100067.09;4912444;29;20028;-91
2022/05/12 10:58:22;;;;;;;3.95;2.67;;;;;;;19.26;49.63;100065.53;4897795;29;20037;-90
2022/05/12 11:01:22;;;;;;;5.35;2.97;;;;;;;19.30;49.98;100064.97;4903963;29;20715;-91
2022/05/12 11:04:10;;;;;;;3.03;2.45;;;;;;;19.45;50.81;100064.94;4877490;29;20037;-91
2022/05/12 11:06:58;;;;;;;3.33;2.33;;;;;;;19.56;50.99;100063.59;4896640;29;20040;-90
2022/05/12 11:09:45;;;;;;;8.10;3.08;;;;;;;19.54;49.66;100050.25;4895952;29;20052;-89
2022/05/12 11:12:22;;;;;;;4.68;2.55;;;;;;;19.56;49.19;100056.31;4880310;29;20028;-90
2022/05/12 11:14:58;;;;;;;5.75;2.55;;;;;;;19.62;49.22;100050.09;4895895;29;20036;-90
2022/05/12 11:17:38;;;;;;;4.22;2.83;;;;;;;19.62;49.24;100057.41;4896699;29;20371;-90
2022/05/12 11:20:28;;;;;;;5.13;2.60;;;;;;;19.63;49.71;100053.66;4896367;29;20024;-90
2022/05/12 11:23:06;;;;;;;4.70;2.92;;;;;;;19.63;49.18;100054.50;4887487;29;20036;-90
2022/05/12 11:25:50;;;;;;;2.92;2.42;;;;;;;19.62;49.88;100050.09;4880780;29;20135;-89
2022/05/12 11:31:16;;;;;;;4.40;3.05;;;;;;;19.56;49.32;100056.31;4896462;29;20046;-89
2022/05/12 11:33:50;;;;;;;3.90;2.80;;;;;;;19.60;48.83;100059.47;4880211;29;20033;-90
2022/05/12 11:36:16;;;;;;;2.83;2.05;;;;;;;19.70;49.65;100059.97;4896413;29;20048;-90
2022/05/12 11:38:45;;;;;;;5.80;2.38;;;;;;;19.75;49.88;100052.09;4896595;29;20060;-90
2022/05/12 11:41:19;;;;;;;3.50;2.22;;;;;;;19.82;48.78;100058.41;4880375;29;20131;-89
2022/05/12 11:46:43;;;;;;;4.18;2.50;;;;;;;19.85;49.08;100043.63;4896301;29;20096;-89
2022/05/12 11:49:20;;;;;;;5.07;2.53;;;;;;;19.79;47.92;100045.25;4896101;29;20046;-91
2022/05/12 11:52:06;;;;;;;5.70;3.25;;;;;;;19.85;48.56;100039.03;4910366;29;20499;-90
2022/05/12 11:54:35;;;;;;;5.35;2.85;;;;;;;19.83;47.60;100032.97;4885820;29;20144;-90
2022/05/12 11:57:00;;;;;;;;;;;;;;;19.87;48.08;100036.16;4896922;29;20028;-92